Time;durP1;ratioP1;P1;durP2;ratioP2;P2;SDS_P1;SDS_P2;PMS_P1;PMS_P2;Temp;Humidity;BMP_temperature;BMP_pressure;BME280_temperature;BME280_humidity;BME280_pressure;Samples;Min_cycle;Max_cycle;Signal;HPM_P1;HPM_P2
2023/02/04 00:02:21;;;;;;;7.53;4.20;;;;;;;8.64;100.00;101703.19;5079485;28;20208;-76
2023/02/04 00:04:48;;;;;;;15.65;4.32;;;;;;;8.58;100.00;101703.31;5080384;28;20227;-77
2023/02/04 00:07:17;;;;;;;11.93;4.30;;;;;;;8.48;100.00;101722.28;5080489;28;20236;-80
2023/02/04 00:09:45;;;;;;;11.18;3.90;;;;;;;8.53;100.00;101723.06;5074156;28;20219;-77
2023/02/04 00:12:12;;;;;;;9.05;4.90;;;;;;;8.56;100.00;101725.69;5072093;28;20637;-76
2023/02/04 00:14:38;;;;;;;12.98;3.90;;;;;;;8.56;100.00;101725.69;5075291;28;20221;-78
2023/02/04 00:17:06;;;;;;;9.55;3.95;;;;;;;8.52;100.00;101726.69;5068616;28;20287;-77
2023/02/04 00:19:33;;;;;;;8.20;4.03;;;;;;;8.51;100.00;101724.91;5068877;28;20207;-77
2023/02/04 00:21:59;;;;;;;11.02;4.13;;;;;;;8.53;100.00;101722.19;5072375;28;20199;-77
2023/02/04 00:24:27;;;;;;;10.50;4.35;;;;;;;8.52;100.00;101729.38;5072843;28;20317;-77
2023/02/04 00:26:54;;;;;;;16.33;7.28;;;;;;;8.55;100.00;101715.00;5083091;28;20188;-77
2023/02/04 00:29:20;;;;;;;9.05;4.57;;;;;;;8.54;100.00;101724.84;5086471;28;20207;-77
2023/02/04 00:31:47;;;;;;;11.20;4.50;;;;;;;8.47;100.00;101731.22;5070411;28;20193;-76
2023/02/04 00:34:13;;;;;;;12.48;3.85;;;;;;;8.47;100.00;101733.91;5080660;28;20263;-76
2023/02/04 00:36:40;;;;;;;8.75;4.40;;;;;;;8.50;100.00;101730.28;5078348;28;20220;-77
2023/02/04 00:39:06;;;;;;;13.48;4.00;;;;;;;8.50;100.00;101739.25;5076627;28;20270;-76
2023/02/04 00:41:35;;;;;;;10.25;3.97;;;;;;;8.46;100.00;101731.25;5076102;28;20189;-77
2023/02/04 00:44:02;;;;;;;13.48;5.13;;;;;;;8.44;100.00;101742.00;5081629;28;20280;-76
2023/02/04 00:46:29;;;;;;;12.68;4.50;;;;;;;8.45;100.00;101741.09;5078067;28;20201;-77
2023/02/04 00:48:56;;;;;;;19.13;4.80;;;;;;;8.47;100.00;101730.34;5079031;28;20256;-75
2023/02/04 00:51:22;;;;;;;9.73;4.00;;;;;;;8.46;100.00;101737.50;5083647;28;20201;-77
2023/02/04 00:53:49;;;;;;;10.85;5.68;;;;;;;8.50;100.00;101747.31;5076983;28;20305;-76
2023/02/04 00:56:15;;;;;;;9.40;3.90;;;;;;;8.53;100.00;101731.13;5080233;28;20287;-76
2023/02/04 00:58:43;;;;;;;8.80;4.07;;;;;;;8.51;100.00;101740.13;5079786;28;20196;-75
2023/02/04 01:01:10;;;;;;;6.53;4.13;;;;;;;8.48;100.00;101729.41;5078735;28;20207;-77
2023/02/04 01:03:36;;;;;;;13.93;4.03;;;;;;;8.47;100.00;101733.91;5079942;28;20252;-76
2023/02/04 01:06:03;;;;;;;5.55;3.50;;;;;;;8.47;100.00;101741.94;5073412;28;20212;-76
2023/02/04 01:08:30;;;;;;;13.15;4.03;;;;;;;8.50;100.00;101749.97;5079853;28;20279;-76
2023/02/04 01:10:56;;;;;;;9.80;4.38;;;;;;;8.49;100.00;101750.88;5080637;28;20200;-77
2023/02/04 01:13:23;;;;;;;11.57;4.10;;;;;;;8.46;100.00;101758.13;5082189;28;20240;-76
2023/02/04 01:15:51;;;;;;;12.10;3.75;;;;;;;8.46;100.00;101766.16;5078754;28;20226;-78
2023/02/04 01:18:18;;;;;;;13.45;4.55;;;;;;;8.47;100.00;101768.81;5078237;28;20201;-76
2023/02/04 01:20:44;;;;;;;12.35;3.85;;;;;;;8.45;100.00;101765.25;5080473;28;20230;-77
2023/02/04 01:23:11;;;;;;;6.63;3.58;;;;;;;8.44;100.00;101763.50;5076541;28;20226;-77
2023/02/04 01:25:37;;;;;;;8.73;4.00;;;;;;;8.46;100.00;101763.47;5079071;28;20239;-76
2023/02/04 01:28:04;;;;;;;16.98;4.50;;;;;;;8.45;100.00;101772.44;5083291;28;20255;-75
2023/02/04 01:30:31;;;;;;;12.02;4.20;;;;;;;8.46;100.00;101767.03;5081481;28;20264;-76
2023/02/04 01:32:59;;;;;;;9.18;4.57;;;;;;;8.40;100.00;101775.19;5078255;28;20210;-78
2023/02/04 01:35:25;;;;;;;11.15;4.55;;;;;;;8.38;100.00;101782.34;5071929;28;20207;-77
2023/02/04 01:37:52;;;;;;;12.77;4.88;;;;;;;8.36;100.00;101776.97;5074368;28;20215;-76
2023/02/04 01:40:19;;;;;;;9.10;4.00;;;;;;;8.38;100.00;101781.44;5071566;28;20199;-77
2023/02/04 01:42:46;;;;;;;6.57;3.85;;;;;;;8.34;100.00;101778.81;5072439;28;20190;-77
2023/02/04 01:45:13;;;;;;;14.57;5.18;;;;;;;8.31;100.00;101777.97;5077732;28;20232;-78
2023/02/04 01:47:42;;;;;;;11.85;5.13;;;;;;;8.29;100.00;101790.50;5075979;28;20294;-78
2023/02/04 01:50:13;;;;;;;9.32;4.22;;;;;;;8.28;100.00;101788.75;5073251;28;20726;-76
2023/02/04 01:52:41;;;;;;;7.30;3.70;;;;;;;8.23;100.00;101791.50;5071307;28;20181;-77
2023/02/04 01:55:14;;;;;;;15.10;4.07;;;;;;;8.25;100.00;101786.09;5070368;28;20318;-77
2023/02/04 01:57:41;;;;;;;6.30;3.70;;;;;;;8.20;100.00;101799.56;5075807;28;20203;-78
2023/02/04 02:00:15;;;;;;;9.18;3.80;;;;;;;8.22;100.00;101805.81;5066961;28;20216;-79
2023/02/04 02:02:45;;;;;;;14.73;4.20;;;;;;;8.20;100.00;101810.31;5071646;28;20193;-78
2023/02/04 02:05:16;;;;;;;17.58;6.53;;;;;;;8.17;100.00;101815.72;5072704;28;20213;-78
2023/02/04 02:07:43;;;;;;;9.52;4.30;;;;;;;8.14;100.00;101813.97;5078562;28;20181;-77
2023/02/04 02:10:12;;;;;;;10.30;4.38;;;;;;;8.14;100.00;101816.66;5082110;28;20181;-76
2023/02/04 02:12:39;;;;;;;11.55;4.72;;;;;;;8.15;100.00;101815.75;5081775;28;20220;-77
2023/02/04 02:15:07;;;;;;;12.73;4.82;;;;;;;8.10;100.00;101819.41;5070993;28;20732;-77
2023/02/04 02:17:33;;;;;;;10.27;4.00;;;;;;;8.08;100.00;101819.41;5065233;28;20705;-77
2023/02/04 02:20:00;;;;;;;8.90;4.30;;;;;;;8.08;100.00;101830.16;5067538;28;20196;-79
2023/02/04 02:22:33;;;;;;;12.73;3.72;;;;;;;8.10;100.00;101833.69;5070529;28;20215;-78
2023/02/04 02:25:01;;;;;;;11.13;4.30;;;;;;;8.07;100.00;101840.88;5060917;28;20719;-77
2023/02/04 02:27:27;;;;;;;9.02;4.00;;;;;;;8.08;100.00;101840.88;5064174;28;20203;-78
2023/02/04 02:29:54;;;;;;;10.05;4.10;;;;;;;8.12;100.00;101833.69;5065594;28;20206;-77
2023/02/04 02:32:21;;;;;;;8.95;3.53;;;;;;;8.19;100.00;101837.19;5067096;28;20206;-78
2023/02/04 02:34:48;;;;;;;7.00;3.17;;;;;;;8.15;100.00;101837.22;5067237;28;20303;-77
2023/02/04 02:37:14;;;;;;;8.40;4.20;;;;;;;8.07;100.00;101841.81;5065586;28;20290;-77
2023/02/04 02:39:44;;;;;;;12.10;4.28;;;;;;;8.05;100.00;101840.00;5075092;28;20565;-77
2023/02/04 02:42:15;;;;;;;13.13;4.43;;;;;;;8.06;100.00;101844.50;5064901;28;20196;-78
2023/02/04 02:44:42;;;;;;;12.48;4.20;;;;;;;8.08;100.00;101861.47;5071194;28;20244;-77
2023/02/04 02:47:13;;;;;;;14.02;3.95;;;;;;;8.01;100.00;101849.91;5073175;28;20563;-77
2023/02/04 02:49:40;;;;;;;9.27;4.05;;;;;;;8.07;100.00;101859.69;5074392;28;20203;-77
2023/02/04 02:52:10;;;;;;;9.13;4.95;;;;;;;7.97;100.00;101861.59;5073728;28;20190;-77
2023/02/04 02:54:37;;;;;;;10.43;4.30;;;;;;;7.96;100.00;101865.19;5080521;28;20276;-77
2023/02/04 02:57:11;;;;;;;15.07;4.63;;;;;;;7.84;100.00;101865.31;5084799;28;20219;-76
2023/02/04 02:59:39;;;;;;;9.68;3.80;;;;;;;7.89;100.00;101869.72;5078334;28;20275;-77
2023/02/04 03:02:06;;;;;;;12.07;3.95;;;;;;;7.90;100.00;101873.28;5078452;28;20204;-77
2023/02/04 03:04:37;;;;;;;8.98;4.20;;;;;;;7.95;100.00;101866.06;5082421;28;20222;-80
2023/02/04 03:07:04;;;;;;;8.10;3.50;;;;;;;7.92;100.00;101867.00;5083707;28;20187;-77
2023/02/04 03:09:32;;;;;;;10.52;4.20;;;;;;;7.96;100.00;101866.97;5085806;28;20263;-78
2023/02/04 03:11:59;;;;;;;9.98;3.63;;;;;;;7.96;100.00;101866.97;5076453;28;20286;-76
2023/02/04 03:14:27;;;;;;;15.02;3.70;;;;;;;7.89;100.00;101867.03;5075747;28;20216;-76
2023/02/04 03:16:55;;;;;;;9.23;3.85;;;;;;;7.88;100.00;101883.16;5079156;28;20216;-76
2023/02/04 03:19:23;;;;;;;6.40;3.30;;;;;;;7.82;100.00;101885.88;5078751;28;20204;-76
2023/02/04 03:21:49;;;;;;;11.27;4.20;;;;;;;7.82;100.00;101885.88;5076945;28;20204;-77
2023/02/04 03:24:16;;;;;;;13.07;4.20;;;;;;;7.80;100.00;101893.06;5074715;28;20223;-77
2023/02/04 03:26:43;;;;;;;12.23;3.97;;;;;;;7.82;100.00;101907.34;5083771;28;20195;-76
2023/02/04 03:29:10;;;;;;;12.43;3.70;;;;;;;7.82;100.00;101905.53;5085607;28;20192;-77
2023/02/04 03:31:37;;;;;;;12.27;4.40;;;;;;;7.77;100.00;101904.72;5070247;28;20256;-77
2023/02/04 03:34:05;;;;;;;8.70;3.53;;;;;;;7.72;100.00;101909.25;5057378;28;20227;-78
2023/02/04 03:36:32;;;;;;;11.35;3.72;;;;;;;7.81;100.00;101902.91;5050575;28;20209;-76
2023/02/04 03:38:59;;;;;;;10.68;3.67;;;;;;;7.79;100.00;101899.34;5058028;28;20224;-76
2023/02/04 03:41:25;;;;;;;13.40;3.97;;;;;;;7.72;100.00;101891.34;5059630;28;20271;-76
2023/02/04 03:43:52;;;;;;;8.63;3.45;;;;;;;7.70;100.00;101889.59;5077298;22;20268;-74
2023/02/04 03:46:19;;;;;;;9.60;3.10;;;;;;;7.78;100.00;101894.88;5056358;28;20206;-74
2023/02/04 03:48:45;;;;;;;12.18;3.53;;;;;;;7.70;100.00;101901.19;5059095;28;20240;-75
2023/02/04 03:51:13;;;;;;;11.52;3.90;;;;;;;7.71;100.00;101908.34;5056604;28;20298;-74
2023/02/04 03:53:40;;;;;;;11.75;3.25;;;;;;;7.67;100.00;101917.34;5054251;28;20229;-74
2023/02/04 03:56:06;;;;;;;13.27;4.10;;;;;;;7.66;100.00;101918.22;5037217;28;20272;-74
2023/02/04 03:58:33;;;;;;;9.25;3.78;;;;;;;7.65;100.00;101912.88;5037162;28;20257;-74
2023/02/04 04:01:00;;;;;;;7.38;3.08;;;;;;;7.65;100.00;101911.09;5035964;28;20636;-75
2023/02/04 04:03:26;;;;;;;13.85;3.38;;;;;;;7.67;100.00;101919.13;5037656;28;20235;-75
2023/02/04 04:05:53;;;;;;;13.48;3.83;;;;;;;7.62;100.00;101921.84;5037164;28;20201;-76
2023/02/04 04:08:21;;;;;;;12.77;4.72;;;;;;;7.59;100.00;101921.84;5037136;28;20491;-78
2023/02/04 04:10:47;;;;;;;14.77;4.30;;;;;;;7.61;100.00;101924.53;5039613;28;20213;-76
2023/02/04 04:13:17;;;;;;;14.10;3.78;;;;;;;7.58;100.00;101928.13;5040825;28;20288;-74
2023/02/04 04:15:43;;;;;;;13.45;4.53;;;;;;;7.55;100.00;101938.00;5040227;28;20225;-75
2023/02/04 04:18:10;;;;;;;17.63;5.05;;;;;;;7.54;100.00;101931.75;5041470;28;20224;-74
2023/02/04 04:20:36;;;;;;;13.77;3.75;;;;;;;7.55;100.00;101946.03;5040388;28;20202;-75
2023/02/04 04:23:03;;;;;;;15.07;4.35;;;;;;;7.55;100.00;101943.34;5041122;28;20215;-74
2023/02/04 04:25:31;;;;;;;11.63;3.70;;;;;;;7.59;100.00;101947.78;5042557;28;20289;-74
2023/02/04 04:27:58;;;;;;;13.13;3.20;;;;;;;7.53;100.00;101954.09;5042583;28;20292;-75
2023/02/04 04:30:24;;;;;;;17.02;3.72;;;;;;;7.48;100.00;101955.91;5039306;28;20209;-75
2023/02/04 04:32:51;;;;;;;11.50;3.90;;;;;;;7.45;100.00;101951.47;5038535;28;20205;-74
2023/02/04 04:35:17;;;;;;;17.20;4.50;;;;;;;7.50;100.00;101944.28;5038060;28;20218;-74
2023/02/04 04:37:44;;;;;;;10.50;3.97;;;;;;;7.43;100.00;101937.19;5037264;28;20217;-74
2023/02/04 04:40:12;;;;;;;12.60;3.78;;;;;;;7.39;100.00;101945.25;5038370;28;20501;-76
2023/02/04 04:42:40;;;;;;;11.35;4.00;;;;;;;7.37;100.00;101937.25;5038115;28;20279;-75
2023/02/04 04:45:09;;;;;;;14.73;4.28;;;;;;;7.41;100.00;101932.75;5038902;28;20236;-74
2023/02/04 04:47:35;;;;;;;17.25;4.07;;;;;;;7.37;100.00;101926.53;5036796;28;20670;-74
2023/02/04 04:50:02;;;;;;;12.20;3.50;;;;;;;7.42;100.00;101940.78;5036160;28;20208;-75
2023/02/04 04:52:28;;;;;;;8.65;4.03;;;;;;;7.37;100.00;101945.28;5035783;28;20208;-74
2023/02/04 04:54:55;;;;;;;12.20;3.63;;;;;;;7.34;100.00;101947.09;5035860;28;20630;-74
2023/02/04 04:57:21;;;;;;;10.32;3.95;;;;;;;7.35;100.00;101949.78;5036471;28;20706;-73
2023/02/04 04:59:49;;;;;;;15.45;3.97;;;;;;;7.31;100.00;101946.22;5036878;28;20245;-75
2023/02/04 05:02:16;;;;;;;11.20;4.20;;;;;;;7.29;100.00;101957.84;5036278;28;20323;-73
2023/02/04 05:04:42;;;;;;;16.42;4.95;;;;;;;7.31;100.00;101954.25;5035467;28;20249;-74
2023/02/04 05:07:09;;;;;;;14.70;4.20;;;;;;;7.27;100.00;101960.53;5035119;28;20197;-73
2023/02/04 05:09:35;;;;;;;12.30;4.20;;;;;;;7.23;100.00;101956.09;5039002;28;20286;-73
2023/02/04 05:12:02;;;;;;;10.82;3.45;;;;;;;7.21;100.00;101963.28;5037114;28;20554;-74
2023/02/04 05:14:29;;;;;;;11.18;3.33;;;;;;;7.13;100.00;101964.22;5037415;28;20651;-76
2023/02/04 05:16:57;;;;;;;12.77;4.55;;;;;;;7.09;100.00;101974.94;5037119;28;20209;-73
2023/02/04 05:19:23;;;;;;;13.50;3.38;;;;;;;7.00;100.00;101971.44;5036938;28;20587;-74
2023/02/04 05:21:50;;;;;;;15.75;3.78;;;;;;;6.95;100.00;101974.13;5036713;28;20269;-75
2023/02/04 05:24:17;;;;;;;17.35;4.43;;;;;;;6.87;100.00;101967.91;5036443;28;20258;-74
2023/02/04 05:26:43;;;;;;;10.30;3.97;;;;;;;6.84;100.00;101979.53;5036080;28;20213;-75
2023/02/04 05:29:10;;;;;;;16.30;4.72;;;;;;;6.81;100.00;101984.91;5035735;28;20235;-74
2023/02/04 05:31:36;;;;;;;9.13;3.28;;;;;;;6.79;100.00;101986.72;5036074;28;20213;-74
2023/02/04 05:34:05;;;;;;;13.38;3.50;;;;;;;6.80;100.00;101982.25;5035346;28;20231;-75
2023/02/04 05:36:31;;;;;;;15.05;4.05;;;;;;;6.87;100.00;101984.91;5042593;28;20233;-74
2023/02/04 05:38:58;;;;;;;16.30;5.00;;;;;;;6.87;100.00;101989.34;5040596;28;20224;-74
2023/02/04 05:41:24;;;;;;;18.85;4.68;;;;;;;6.89;100.00;101993.78;5043988;28;20224;-75
2023/02/04 05:43:51;;;;;;;14.60;4.90;;;;;;;6.94;100.00;102000.91;5040967;28;20291;-74
2023/02/04 05:46:17;;;;;;;17.58;4.10;;;;;;;6.99;100.00;101993.78;5049749;28;20270;-75
2023/02/04 05:48:44;;;;;;;13.30;5.05;;;;;;;7.05;100.00;102002.63;5051627;28;20233;-74
2023/02/04 05:51:12;;;;;;;21.15;4.25;;;;;;;7.08;100.00;101996.41;5040185;28;20201;-74
2023/02/04 05:53:39;;;;;;;12.23;4.10;;;;;;;7.06;100.00;101992.84;5049320;28;20359;-74
2023/02/04 05:56:05;;;;;;;14.98;4.47;;;;;;;7.08;100.00;101989.25;5052567;28;20211;-73
2023/02/04 05:58:33;;;;;;;14.63;4.10;;;;;;;7.11;100.00;101991.00;5054581;28;20324;-72
2023/02/04 06:01:00;;;;;;;10.05;4.20;;;;;;;7.07;100.00;101998.16;5046513;28;20212;-74
2023/02/04 06:03:27;;;;;;;12.82;4.00;;;;;;;7.13;100.00;102021.38;5041295;28;20204;-74
2023/02/04 06:05:53;;;;;;;13.18;3.83;;;;;;;7.10;100.00;102008.88;5043102;28;20201;-73
2023/02/04 06:08:21;;;;;;;14.05;4.18;;;;;;;7.09;100.00;102009.75;5037433;28;20201;-75
2023/02/04 06:10:48;;;;;;;14.05;3.90;;;;;;;7.14;100.00;102015.09;5039309;28;20578;-76
2023/02/04 06:13:15;;;;;;;13.55;3.85;;;;;;;7.06;100.00;102017.84;5039557;28;20204;-75
2023/02/04 06:15:42;;;;;;;18.60;5.20;;;;;;;7.06;100.00;102025.88;5039283;28;20248;-76
2023/02/04 06:18:09;;;;;;;12.10;3.40;;;;;;;7.09;100.00;102028.53;5037445;28;20225;-76
2023/02/04 06:20:35;;;;;;;13.43;4.03;;;;;;;7.16;100.00;102029.38;5036268;28;20235;-77
2023/02/04 06:23:02;;;;;;;16.00;4.25;;;;;;;7.24;100.00;102022.19;5037521;28;20205;-75
2023/02/04 06:25:30;;;;;;;17.67;4.50;;;;;;;7.24;100.00;102029.38;5041512;28;20220;-74
2023/02/04 06:27:57;;;;;;;20.58;4.82;;;;;;;7.30;100.00;102026.63;5043591;28;20204;-75
2023/02/04 06:30:23;;;;;;;13.88;3.88;;;;;;;7.27;100.00;102023.97;5045651;28;20221;-75
2023/02/04 06:32:50;;;;;;;17.80;5.40;;;;;;;7.26;100.00;102025.78;5050778;28;20205;-75
2023/02/04 06:35:17;;;;;;;15.65;4.45;;;;;;;7.23;100.00;102031.13;5052865;28;20217;-75
2023/02/04 06:37:44;;;;;;;15.70;4.50;;;;;;;7.23;100.00;102032.91;5047593;28;20234;-74
2023/02/04 06:40:11;;;;;;;16.85;4.95;;;;;;;7.24;100.00;102049.00;5043684;28;20204;-76
2023/02/04 06:42:39;;;;;;;13.93;4.47;;;;;;;7.25;100.00;102044.53;5044848;28;20199;-76
2023/02/04 06:45:07;;;;;;;15.80;4.55;;;;;;;7.23;100.00;102049.88;5042257;28;20327;-75
2023/02/04 06:47:34;;;;;;;12.73;4.75;;;;;;;7.31;100.00;102053.44;5042258;28;20208;-74
2023/02/04 06:50:00;;;;;;;11.38;4.40;;;;;;;7.30;100.00;102054.34;5042011;28;20235;-74
2023/02/04 06:52:27;;;;;;;17.17;5.50;;;;;;;7.28;100.00;102056.13;5043694;28;20200;-75
2023/02/04 06:54:53;;;;;;;11.93;4.20;;;;;;;7.27;100.00;102054.34;5041794;28;20848;-75
2023/02/04 06:57:20;;;;;;;28.95;10.02;;;;;;;7.26;100.00;102054.38;5041241;28;20694;-75
2023/02/04 06:59:48;;;;;;;17.35;5.10;;;;;;;7.25;100.00;102068.66;5041123;28;20703;-75
2023/02/04 07:02:14;;;;;;;15.00;3.90;;;;;;;7.34;100.00;102065.03;5042334;28;20206;-76
2023/02/04 07:04:42;;;;;;;12.50;3.95;;;;;;;7.38;100.00;102074.84;5042679;28;20375;-77
2023/02/04 07:07:09;;;;;;;17.17;4.40;;;;;;;7.36;100.00;102072.16;5041833;28;20255;-76
2023/02/04 07:09:36;;;;;;;19.92;5.55;;;;;;;7.36;100.00;102076.66;5043106;28;20281;-75
2023/02/04 07:12:02;;;;;;;18.15;4.97;;;;;;;7.27;100.00;102075.78;5046246;28;20632;-77
2023/02/04 07:14:29;;;;;;;15.05;5.50;;;;;;;7.30;100.00;102086.50;5047698;28;20217;-75
2023/02/04 07:16:57;;;;;;;13.10;3.88;;;;;;;7.34;100.00;102095.41;5048818;28;20212;-74
2023/02/04 07:19:24;;;;;;;13.85;4.18;;;;;;;7.33;100.00;102096.31;5047123;28;20255;-74
2023/02/04 07:21:53;;;;;;;14.60;4.72;;;;;;;7.31;100.00;102104.34;5046764;28;20235;-74
2023/02/04 07:24:20;;;;;;;15.55;4.05;;;;;;;7.36;100.00;102109.69;5045310;28;20278;-74
2023/02/04 07:26:46;;;;;;;14.35;5.35;;;;;;;7.38;100.00;102109.69;5043352;28;20634;-75
2023/02/04 07:29:13;;;;;;;12.18;4.85;;;;;;;7.43;100.00;102126.63;5041654;28;20204;-74
2023/02/04 07:31:39;;;;;;;14.50;5.03;;;;;;;7.44;100.00;102121.28;5042195;28;20213;-75
2023/02/04 07:34:07;;;;;;;13.73;4.55;;;;;;;7.56;100.00;102120.31;5045420;28;20593;-77
2023/02/04 07:36:34;;;;;;;12.88;4.53;;;;;;;7.51;100.00;102122.16;5037634;28;20211;-76
2023/02/04 07:39:00;;;;;;;17.13;5.20;;;;;;;7.55;100.00;102117.63;5036328;28;20231;-75
2023/02/04 07:41:27;;;;;;;21.77;8.23;;;;;;;7.60;100.00;102121.19;5036385;28;20205;-74
2023/02/04 07:43:53;;;;;;;13.13;5.82;;;;;;;7.61;100.00;102126.53;5036123;28;20663;-78
2023/02/04 07:46:20;;;;;;;14.55;4.40;;;;;;;7.59;100.00;102128.34;5036920;28;20195;-75
2023/02/04 07:48:50;;;;;;;24.42;5.60;;;;;;;7.67;100.00;102139.94;5041782;28;20264;-74
2023/02/04 07:51:17;;;;;;;10.23;4.13;;;;;;;7.80;100.00;102146.13;5043091;28;20194;-75
2023/02/04 07:53:44;;;;;;;12.77;4.20;;;;;;;8.04;100.00;102152.22;5041967;28;20259;-77
2023/02/04 07:56:11;;;;;;;27.10;4.82;;;;;;;8.39;100.00;102154.63;5043879;28;20208;-76
2023/02/04 07:58:37;;;;;;;18.40;4.40;;;;;;;8.62;100.00;102148.22;5042556;28;20656;-76
2023/02/04 08:01:04;;;;;;;15.15;4.53;;;;;;;9.36;100.00;102151.88;5042214;28;20714;-76
2023/02/04 08:03:31;;;;;;;17.60;5.05;;;;;;;9.89;100.00;102151.16;5044317;28;20664;-76
2023/02/04 08:05:57;;;;;;;14.50;3.67;;;;;;;10.74;100.00;102162.38;5038930;28;20217;-76
2023/02/04 08:08:25;;;;;;;11.18;4.03;;;;;;;11.56;100.00;102160.78;5041516;28;20233;-73
2023/02/04 08:10:52;;;;;;;14.88;4.55;;;;;;;12.16;100.00;102168.41;5031541;28;20202;-73
2023/02/04 08:13:19;;;;;;;20.25;4.88;;;;;;;12.96;100.00;102163.69;5042643;28;20282;-74
2023/02/04 08:15:45;;;;;;;17.25;6.07;;;;;;;13.69;100.00;102173.34;5033435;28;20626;-74
2023/02/04 08:18:12;;;;;;;19.08;8.55;;;;;;;14.35;92.55;102169.44;5017506;28;20227;-75
2023/02/04 08:20:38;;;;;;;17.80;8.57;;;;;;;15.28;82.08;102180.72;5025368;28;20210;-77
2023/02/04 08:23:05;;;;;;;24.02;11.40;;;;;;;15.60;75.54;102173.19;5017728;28;20203;-74
2023/02/04 08:25:33;;;;;;;12.95;6.53;;;;;;;15.18;71.43;102185.59;5019727;28;20551;-74
2023/02/04 08:28:02;;;;;;;11.50;4.22;;;;;;;14.58;79.96;102187.72;5038269;28;20225;-75
2023/02/04 08:30:29;;;;;;;10.52;3.70;;;;;;;13.85;82.57;102185.50;5029307;28;20270;-74
2023/02/04 08:32:56;;;;;;;16.67;4.57;;;;;;;13.24;89.07;102188.16;5016010;28;20242;-75
2023/02/04 08:35:22;;;;;;;13.52;4.30;;;;;;;12.49;96.85;102187.44;5017460;28;20237;-74
2023/02/04 08:37:49;;;;;;;15.02;4.35;;;;;;;12.14;100.00;102191.00;5015195;28;20630;-75
2023/02/04 08:40:16;;;;;;;10.60;4.25;;;;;;;11.80;100.00;102197.13;5016369;28;20298;-75
2023/02/04 08:42:44;;;;;;;13.07;4.35;;;;;;;11.71;100.00;102200.91;5016610;28;20743;-75
2023/02/04 08:45:10;;;;;;;12.82;4.28;;;;;;;11.50;100.00;102213.03;5020661;28;20268;-76
2023/02/04 08:47:37;;;;;;;12.25;3.67;;;;;;;11.25;100.00;102207.25;5027447;28;20201;-74
2023/02/04 08:50:03;;;;;;;16.60;4.90;;;;;;;11.15;100.00;102209.25;5024065;28;20289;-75
2023/02/04 08:52:30;;;;;;;15.98;4.75;;;;;;;11.19;100.00;102213.66;5033405;28;20199;-75
2023/02/04 08:54:56;;;;;;;13.88;5.20;;;;;;;10.95;100.00;102216.81;5022843;28;20218;-74
2023/02/04 08:57:23;;;;;;;13.73;5.78;;;;;;;10.89;100.00;102220.50;5034704;28;20675;-76
2023/02/04 08:59:51;;;;;;;14.20;4.90;;;;;;;10.78;100.00;102219.78;5026947;28;20226;-76
2023/02/04 09:02:17;;;;;;;14.90;4.28;;;;;;;10.96;100.00;102226.66;5016859;28;20550;-76
2023/02/04 09:04:44;;;;;;;13.43;3.63;;;;;;;11.27;100.00;102227.88;5033831;28;20214;-75
2023/02/04 09:07:10;;;;;;;12.68;3.70;;;;;;;11.55;100.00;102224.63;5041257;28;20201;-74
2023/02/04 09:09:37;;;;;;;13.27;4.45;;;;;;;11.84;100.00;102218.63;5042070;28;20198;-74
2023/02/04 09:12:06;;;;;;;10.93;4.20;;;;;;;12.24;100.00;102223.16;5040977;28;20604;-75
2023/02/04 09:14:33;;;;;;;12.23;4.32;;;;;;;13.08;93.07;102228.25;5041733;28;20312;-76
2023/02/04 09:17:01;;;;;;;8.75;3.55;;;;;;;13.68;85.43;102234.75;5043171;28;20725;-76
2023/02/04 09:19:27;;;;;;;14.48;5.20;;;;;;;13.45;85.34;102227.28;5044385;28;20706;-77
2023/02/04 09:21:54;;;;;;;13.35;4.35;;;;;;;14.45;76.29;102237.81;5036797;28;20277;-75
2023/02/04 09:24:22;;;;;;;7.82;3.00;;;;;;;14.01;75.25;102237.38;5036099;28;20233;-75
2023/02/04 09:26:48;;;;;;;17.00;4.35;;;;;;;13.72;78.04;102236.41;5018314;28;20253;-78
2023/02/04 09:29:17;;;;;;;14.35;3.88;;;;;;;13.76;79.76;102226.41;5023218;28;20210;-75
2023/02/04 09:31:44;;;;;;;10.77;3.42;;;;;;;14.17;75.91;102237.78;5019729;28;20609;-74
2023/02/04 09:34:12;;;;;;;10.55;2.90;;;;;;;14.55;72.13;102238.44;5015616;28;20245;-75
2023/02/04 09:36:38;;;;;;;10.98;3.15;;;;;;;14.79;72.25;102242.16;5017037;28;20207;-68
2023/02/04 09:39:05;;;;;;;66.78;44.50;;;;;;;16.10;63.74;102241.03;5012446;28;20223;-72
2023/02/04 09:41:33;;;;;;;17.45;8.30;;;;;;;17.81;53.47;102247.34;5013881;28;20300;-70
2023/02/04 09:44:01;;;;;;;7.70;4.20;;;;;;;18.75;47.36;102251.91;5014461;28;20240;-68
2023/02/04 09:46:30;;;;;;;12.70;6.17;;;;;;;19.10;46.86;102260.19;5016670;28;20205;-75
2023/02/04 09:48:58;;;;;;;8.17;2.60;;;;;;;17.72;48.98;102260.44;5015757;28;20444;-77
2023/02/04 09:51:29;;;;;;;7.50;2.90;;;;;;;17.63;50.40;102260.84;5018771;28;20501;-76
2023/02/04 09:54:00;;;;;;;10.57;4.03;;;;;;;17.00;52.34;102258.19;5015735;28;20887;-78
2023/02/04 09:56:27;;;;;;;9.53;3.50;;;;;;;17.28;50.71;102271.50;5018778;28;20434;-77
2023/02/04 09:58:54;;;;;;;11.77;3.20;;;;;;;17.06;51.70;102273.38;5015557;28;20510;-75
2023/02/04 10:01:20;;;;;;;12.73;3.80;;;;;;;16.99;52.04;102271.88;5016768;28;20444;-76
2023/02/04 10:03:50;;;;;;;13.20;3.70;;;;;;;16.76;52.89;102276.44;5015979;28;20455;-77
2023/02/04 10:06:19;;;;;;;7.00;3.63;;;;;;;15.81;57.41;102283.78;5016541;28;20526;-77
2023/02/04 10:08:48;;;;;;;16.30;4.40;;;;;;;15.28;62.38;102289.28;5015874;28;20478;-76
2023/02/04 10:11:17;;;;;;;12.80;3.80;;;;;;;14.66;65.83;102289.59;5017784;28;20966;-75
2023/02/04 10:13:49;;;;;;;10.20;3.03;;;;;;;14.21;69.58;102290.09;5014964;28;20469;-76
2023/02/04 10:16:17;;;;;;;6.28;3.10;;;;;;;13.88;72.79;102296.44;5016035;28;20216;-75
2023/02/04 10:18:45;;;;;;;13.75;3.50;;;;;;;13.63;73.58;102300.78;5033054;28;20225;-75
2023/02/04 10:21:17;;;;;;;15.00;3.88;;;;;;;13.57;75.87;102307.28;5026851;28;20282;-76
2023/02/04 10:23:49;;;;;;;11.80;3.78;;;;;;;13.40;78.57;102310.44;5033649;28;20270;-75
2023/02/04 10:26:16;;;;;;;14.50;3.65;;;;;;;13.53;77.56;102305.59;5034520;28;20361;-75
2023/02/04 10:28:44;;;;;;;12.00;4.30;;;;;;;13.15;82.50;102299.34;5034438;28;20203;-76
2023/02/04 10:31:33;;;;;;;10.85;3.67;;;;;;;12.34;95.32;102312.09;5034614;28;20206;-74
2023/02/04 10:34:09;;;;;;;11.75;4.18;;;;;;;12.03;100.00;102310.06;5047387;28;20206;-75
2023/02/04 10:36:36;;;;;;;12.43;4.25;;;;;;;11.91;100.00;102315.72;5050404;28;20644;-74
2023/02/04 10:39:06;;;;;;;12.75;4.85;;;;;;;11.36;100.00;102310.44;5041713;28;20228;-77
2023/02/04 10:41:37;;;;;;;11.73;4.00;;;;;;;11.56;100.00;102306.50;5039965;28;20208;-75
2023/02/04 10:44:05;;;;;;;9.13;3.55;;;;;;;11.89;100.00;102321.16;5038163;28;20229;-75
2023/02/04 10:46:32;;;;;;;15.55;4.63;;;;;;;12.55;100.00;102317.03;5039990;28;20213;-75
2023/02/04 10:48:58;;;;;;;17.92;5.30;;;;;;;13.02;95.79;102308.69;5044603;28;20212;-75
2023/02/04 10:51:25;;;;;;;14.35;5.93;;;;;;;12.80;94.33;102308.31;5046969;28;20276;-75
2023/02/04 10:56:37;;;;;;;10.70;3.75;;;;;;;13.60;85.43;102314.44;5036356;28;20259;-76
2023/02/04 10:59:04;;;;;;;14.27;3.92;;;;;;;13.64;84.38;102317.00;5037701;28;20222;-75
2023/02/04 11:01:32;;;;;;;10.93;3.30;;;;;;;14.45;76.37;102323.66;5038363;28;20286;-78
2023/02/04 11:03:58;;;;;;;7.88;3.35;;;;;;;15.02;72.52;102309.19;5039216;28;20225;-75
2023/02/04 11:06:25;;;;;;;11.55;2.97;;;;;;;15.86;64.20;102313.50;5039006;28;20207;-77
2023/02/04 11:08:54;;;;;;;8.85;3.20;;;;;;;16.05;63.48;102319.13;5043309;28;20262;-75
2023/02/04 11:11:23;;;;;;;6.65;2.63;;;;;;;15.28;65.29;102323.69;5053289;28;20203;-75
2023/02/04 11:14:03;;;;;;;6.85;2.60;;;;;;;14.71;68.61;102317.47;5053710;28;20234;-76
2023/02/04 11:16:31;;;;;;;8.82;2.90;;;;;;;14.87;70.23;102309.72;5047817;28;20214;-76
2023/02/04 11:19:00;;;;;;;7.57;2.42;;;;;;;14.99;65.96;102303.84;5044267;28;20312;-76
2023/02/04 11:21:29;;;;;;;6.38;2.03;;;;;;;14.91;65.60;102314.97;5042307;28;20217;-76